sensor_id;sensor_type;location;lat;lon;timestamp;temperature;humidity
35495;DHT22;21608;49.300;6.846;2022-10-18T00:02:52;22.10;56.10
35495;DHT22;21608;49.300;6.846;2022-10-18T00:05:54;22.10;56.10
35495;DHT22;21608;49.300;6.846;2022-10-18T00:08:55;22.10;56.00
35495;DHT22;21608;49.300;6.846;2022-10-18T00:11:57;22.10;56.00
35495;DHT22;21608;49.300;6.846;2022-10-18T00:14:59;22.10;56.10
35495;DHT22;21608;49.300;6.846;2022-10-18T00:18:02;22.10;56.10
35495;DHT22;21608;49.300;6.846;2022-10-18T00:21:06;22.10;56.10
35495;DHT22;21608;49.300;6.846;2022-10-18T00:24:09;22.10;56.00
35495;DHT22;21608;49.300;6.846;2022-10-18T00:27:11;22.00;55.90
35495;DHT22;21608;49.300;6.846;2022-10-18T00:30:13;22.10;55.90
35495;DHT22;21608;49.300;6.846;2022-10-18T00:33:15;22.10;55.90
35495;DHT22;21608;49.300;6.846;2022-10-18T00:36:17;22.10;56.00
35495;DHT22;21608;49.300;6.846;2022-10-18T00:39:20;22.10;56.00
35495;DHT22;21608;49.300;6.846;2022-10-18T00:42:26;22.10;56.10
35495;DHT22;21608;49.300;6.846;2022-10-18T00:45:28;22.10;56.00
35495;DHT22;21608;49.300;6.846;2022-10-18T00:48:30;22.00;55.90
35495;DHT22;21608;49.300;6.846;2022-10-18T00:51:42;22.10;56.10
35495;DHT22;21608;49.300;6.846;2022-10-18T00:54:46;22.10;56.00
35495;DHT22;21608;49.300;6.846;2022-10-18T00:57:49;22.10;56.00
35495;DHT22;21608;49.300;6.846;2022-10-18T01:00:51;22.10;56.00
35495;DHT22;21608;49.300;6.846;2022-10-18T01:03:53;22.10;55.90
35495;DHT22;21608;49.300;6.846;2022-10-18T01:20:37;22.00;55.80
35495;DHT22;21608;49.300;6.846;2022-10-18T01:30:37;22.00;55.90
35495;DHT22;21608;49.300;6.846;2022-10-18T01:33:54;22.00;55.80
35495;DHT22;21608;49.300;6.846;2022-10-18T01:37:00;22.00;55.70
35495;DHT22;21608;49.300;6.846;2022-10-18T01:40:05;22.00;55.80
35495;DHT22;21608;49.300;6.846;2022-10-18T01:43:09;22.00;55.80
35495;DHT22;21608;49.300;6.846;2022-10-18T01:46:14;22.00;55.80
35495;DHT22;21608;49.300;6.846;2022-10-18T01:49:17;22.00;55.90
35495;DHT22;21608;49.300;6.846;2022-10-18T01:52:19;22.00;55.90
35495;DHT22;21608;49.300;6.846;2022-10-18T01:55:41;22.00;55.70
35495;DHT22;21608;49.300;6.846;2022-10-18T01:58:53;22.00;55.90
35495;DHT22;21608;49.300;6.846;2022-10-18T02:06:03;22.00;55.80
35495;DHT22;21608;49.300;6.846;2022-10-18T02:09:13;22.00;55.80
35495;DHT22;21608;49.300;6.846;2022-10-18T02:12:17;22.00;55.90
35495;DHT22;21608;49.300;6.846;2022-10-18T02:15:23;22.00;55.90
35495;DHT22;21608;49.300;6.846;2022-10-18T02:18:36;22.00;55.90
35495;DHT22;21608;49.300;6.846;2022-10-18T02:21:41;22.00;55.80
35495;DHT22;21608;49.300;6.846;2022-10-18T02:24:47;22.00;55.90
35495;DHT22;21608;49.300;6.846;2022-10-18T02:27:50;22.00;55.80
35495;DHT22;21608;49.300;6.846;2022-10-18T02:34:27;22.00;55.80
35495;DHT22;21608;49.300;6.846;2022-10-18T02:37:33;22.00;55.90
35495;DHT22;21608;49.300;6.846;2022-10-18T02:40:36;22.00;55.90
35495;DHT22;21608;49.300;6.846;2022-10-18T02:43:38;22.00;55.80
35495;DHT22;21608;49.300;6.846;2022-10-18T02:46:40;22.00;55.90
35495;DHT22;21608;49.300;6.846;2022-10-18T02:49:42;22.00;55.80
35495;DHT22;21608;49.300;6.846;2022-10-18T02:52:43;22.00;55.80
35495;DHT22;21608;49.300;6.846;2022-10-18T02:55:45;22.00;55.80
35495;DHT22;21608;49.300;6.846;2022-10-18T02:58:47;22.00;55.80
35495;DHT22;21608;49.300;6.846;2022-10-18T03:01:49;22.00;55.90
35495;DHT22;21608;49.300;6.846;2022-10-18T03:04:50;22.00;55.70
35495;DHT22;21608;49.300;6.846;2022-10-18T03:07:54;22.00;55.90
35495;DHT22;21608;49.300;6.846;2022-10-18T03:10:56;22.00;55.80
35495;DHT22;21608;49.300;6.846;2022-10-18T03:13:58;22.00;55.80
35495;DHT22;21608;49.300;6.846;2022-10-18T03:17:00;22.00;55.60
35495;DHT22;21608;49.300;6.846;2022-10-18T03:20:01;22.00;55.80
35495;DHT22;21608;49.300;6.846;2022-10-18T03:23:03;22.00;55.70
35495;DHT22;21608;49.300;6.846;2022-10-18T03:26:06;22.00;55.80
35495;DHT22;21608;49.300;6.846;2022-10-18T03:29:08;22.00;55.70
35495;DHT22;21608;49.300;6.846;2022-10-18T03:32:10;22.00;55.70
35495;DHT22;21608;49.300;6.846;2022-10-18T03:35:12;21.90;55.70
35495;DHT22;21608;49.300;6.846;2022-10-18T03:38:14;22.00;55.70
35495;DHT22;21608;49.300;6.846;2022-10-18T03:41:16;22.00;55.80
35495;DHT22;21608;49.300;6.846;2022-10-18T03:44:17;21.90;55.70
35495;DHT22;21608;49.300;6.846;2022-10-18T03:47:19;22.00;55.70
35495;DHT22;21608;49.300;6.846;2022-10-18T03:50:21;22.00;55.70
35495;DHT22;21608;49.300;6.846;2022-10-18T03:53:23;22.00;55.70
35495;DHT22;21608;49.300;6.846;2022-10-18T03:56:24;22.00;55.70
35495;DHT22;21608;49.300;6.846;2022-10-18T03:59:26;21.90;55.60
35495;DHT22;21608;49.300;6.846;2022-10-18T04:02:28;22.00;55.70
35495;DHT22;21608;49.300;6.846;2022-10-18T04:05:30;21.90;55.70
35495;DHT22;21608;49.300;6.846;2022-10-18T04:08:32;22.00;55.80
35495;DHT22;21608;49.300;6.846;2022-10-18T04:11:34;22.00;55.70
35495;DHT22;21608;49.300;6.846;2022-10-18T04:14:35;21.90;55.70
35495;DHT22;21608;49.300;6.846;2022-10-18T04:17:37;21.90;55.60
35495;DHT22;21608;49.300;6.846;2022-10-18T04:20:39;21.90;55.70
35495;DHT22;21608;49.300;6.846;2022-10-18T04:23:40;21.90;55.70
35495;DHT22;21608;49.300;6.846;2022-10-18T04:26:42;21.90;55.70
35495;DHT22;21608;49.300;6.846;2022-10-18T04:29:44;22.00;55.70
35495;DHT22;21608;49.300;6.846;2022-10-18T04:32:46;21.90;55.70
35495;DHT22;21608;49.300;6.846;2022-10-18T04:35:50;21.90;55.70
35495;DHT22;21608;49.300;6.846;2022-10-18T04:38:52;22.00;55.70
35495;DHT22;21608;49.300;6.846;2022-10-18T04:41:54;21.90;55.70
35495;DHT22;21608;49.300;6.846;2022-10-18T04:44:56;21.90;55.80
35495;DHT22;21608;49.300;6.846;2022-10-18T04:47:58;22.00;55.70
35495;DHT22;21608;49.300;6.846;2022-10-18T04:50:59;21.90;55.80
35495;DHT22;21608;49.300;6.846;2022-10-18T04:54:01;21.90;55.90
35495;DHT22;21608;49.300;6.846;2022-10-18T04:57:03;21.90;55.90
35495;DHT22;21608;49.300;6.846;2022-10-18T05:00:05;21.90;55.90
35495;DHT22;21608;49.300;6.846;2022-10-18T05:03:08;21.90;55.70
35495;DHT22;21608;49.300;6.846;2022-10-18T05:06:10;22.00;55.70
35495;DHT22;21608;49.300;6.846;2022-10-18T05:09:11;21.90;55.70
35495;DHT22;21608;49.300;6.846;2022-10-18T05:12:13;21.90;55.80
35495;DHT22;21608;49.300;6.846;2022-10-18T05:15:15;21.90;55.80
35495;DHT22;21608;49.300;6.846;2022-10-18T05:18:17;21.90;55.80
35495;DHT22;21608;49.300;6.846;2022-10-18T05:21:19;21.90;56.00
35495;DHT22;21608;49.300;6.846;2022-10-18T05:24:20;21.90;55.90
35495;DHT22;21608;49.300;6.846;2022-10-18T05:27:27;21.90;55.90
35495;DHT22;21608;49.300;6.846;2022-10-18T05:30:29;21.90;56.00
35495;DHT22;21608;49.300;6.846;2022-10-18T05:33:32;21.90;55.90
35495;DHT22;21608;49.300;6.846;2022-10-18T05:36:34;21.90;55.90
35495;DHT22;21608;49.300;6.846;2022-10-18T05:39:36;21.90;55.90
35495;DHT22;21608;49.300;6.846;2022-10-18T05:42:38;21.90;56.00
35495;DHT22;21608;49.300;6.846;2022-10-18T05:45:46;21.90;55.90
35495;DHT22;21608;49.300;6.846;2022-10-18T05:48:49;21.90;56.00
35495;DHT22;21608;49.300;6.846;2022-10-18T05:51:51;21.90;55.80
35495;DHT22;21608;49.300;6.846;2022-10-18T05:54:53;21.90;55.80
35495;DHT22;21608;49.300;6.846;2022-10-18T05:57:55;21.90;56.00
35495;DHT22;21608;49.300;6.846;2022-10-18T06:00:58;21.90;55.90
35495;DHT22;21608;49.300;6.846;2022-10-18T06:04:01;21.90;56.00
35495;DHT22;21608;49.300;6.846;2022-10-18T06:07:07;21.90;55.90
35495;DHT22;21608;49.300;6.846;2022-10-18T06:10:09;21.90;56.00
35495;DHT22;21608;49.300;6.846;2022-10-18T06:13:11;21.90;55.90
35495;DHT22;21608;49.300;6.846;2022-10-18T06:16:14;21.90;55.90
35495;DHT22;21608;49.300;6.846;2022-10-18T06:19:16;21.90;56.40
35495;DHT22;21608;49.300;6.846;2022-10-18T06:22:18;21.90;56.00
35495;DHT22;21608;49.300;6.846;2022-10-18T06:25:20;21.90;56.00
35495;DHT22;21608;49.300;6.846;2022-10-18T06:28:21;21.90;55.90
35495;DHT22;21608;49.300;6.846;2022-10-18T06:31:23;21.90;55.90
35495;DHT22;21608;49.300;6.846;2022-10-18T06:34:25;21.90;56.00
35495;DHT22;21608;49.300;6.846;2022-10-18T06:37:28;21.90;55.90
35495;DHT22;21608;49.300;6.846;2022-10-18T06:40:31;21.90;56.00
35495;DHT22;21608;49.300;6.846;2022-10-18T06:43:38;21.90;55.90
35495;DHT22;21608;49.300;6.846;2022-10-18T06:46:40;21.90;56.00
35495;DHT22;21608;49.300;6.846;2022-10-18T06:49:42;21.90;56.00
35495;DHT22;21608;49.300;6.846;2022-10-18T06:52:44;21.90;56.00
35495;DHT22;21608;49.300;6.846;2022-10-18T06:55:46;21.90;56.00
35495;DHT22;21608;49.300;6.846;2022-10-18T06:58:47;21.90;56.00
35495;DHT22;21608;49.300;6.846;2022-10-18T07:01:49;21.90;56.00
35495;DHT22;21608;49.300;6.846;2022-10-18T07:04:51;21.90;55.90
35495;DHT22;21608;49.300;6.846;2022-10-18T07:07:53;21.90;55.90
35495;DHT22;21608;49.300;6.846;2022-10-18T07:10:57;21.90;55.90
35495;DHT22;21608;49.300;6.846;2022-10-18T07:14:00;21.90;55.90
35495;DHT22;21608;49.300;6.846;2022-10-18T07:17:03;21.90;55.90
35495;DHT22;21608;49.300;6.846;2022-10-18T07:20:05;22.00;56.00
35495;DHT22;21608;49.300;6.846;2022-10-18T07:23:07;22.00;56.00
35495;DHT22;21608;49.300;6.846;2022-10-18T07:26:25;22.00;55.80
35495;DHT22;21608;49.300;6.846;2022-10-18T07:29:27;21.90;55.90
35495;DHT22;21608;49.300;6.846;2022-10-18T07:32:29;21.90;56.00
35495;DHT22;21608;49.300;6.846;2022-10-18T07:35:31;21.90;56.00
35495;DHT22;21608;49.300;6.846;2022-10-18T07:38:34;21.90;55.90
35495;DHT22;21608;49.300;6.846;2022-10-18T07:41:36;21.90;56.10
35495;DHT22;21608;49.300;6.846;2022-10-18T07:44:38;21.90;56.10
35495;DHT22;21608;49.300;6.846;2022-10-18T07:47:40;21.90;56.10
35495;DHT22;21608;49.300;6.846;2022-10-18T07:50:42;21.90;56.10
35495;DHT22;21608;49.300;6.846;2022-10-18T07:53:44;21.90;56.10
35495;DHT22;21608;49.300;6.846;2022-10-18T07:56:46;21.90;56.10
35495;DHT22;21608;49.300;6.846;2022-10-18T07:59:48;21.90;56.10
35495;DHT22;21608;49.300;6.846;2022-10-18T08:02:57;21.90;56.30
35495;DHT22;21608;49.300;6.846;2022-10-18T08:05:59;21.90;56.30
35495;DHT22;21608;49.300;6.846;2022-10-18T08:09:02;21.90;56.10
35495;DHT22;21608;49.300;6.846;2022-10-18T08:12:04;21.90;56.30
35495;DHT22;21608;49.300;6.846;2022-10-18T08:15:06;21.90;56.20
35495;DHT22;21608;49.300;6.846;2022-10-18T08:18:08;21.90;56.20
35495;DHT22;21608;49.300;6.846;2022-10-18T08:21:11;21.90;56.00
35495;DHT22;21608;49.300;6.846;2022-10-18T08:24:13;21.90;56.10
35495;DHT22;21608;49.300;6.846;2022-10-18T08:27:15;21.90;56.20
35495;DHT22;21608;49.300;6.846;2022-10-18T08:30:17;21.90;56.20
35495;DHT22;21608;49.300;6.846;2022-10-18T08:33:19;21.90;56.10
35495;DHT22;21608;49.300;6.846;2022-10-18T08:36:20;21.90;56.10
35495;DHT22;21608;49.300;6.846;2022-10-18T08:39:22;21.90;56.00
35495;DHT22;21608;49.300;6.846;2022-10-18T08:42:41;21.90;56.10
35495;DHT22;21608;49.300;6.846;2022-10-18T08:45:45;21.90;56.10
35495;DHT22;21608;49.300;6.846;2022-10-18T08:48:49;21.90;56.10
35495;DHT22;21608;49.300;6.846;2022-10-18T08:51:56;21.90;56.10
35495;DHT22;21608;49.300;6.846;2022-10-18T08:58:28;21.90;56.10
35495;DHT22;21608;49.300;6.846;2022-10-18T09:01:58;21.90;56.00
35495;DHT22;21608;49.300;6.846;2022-10-18T09:05:21;21.90;56.40
35495;DHT22;21608;49.300;6.846;2022-10-18T09:08:49;21.90;56.30
35495;DHT22;21608;49.300;6.846;2022-10-18T09:15:46;21.90;56.30
35495;DHT22;21608;49.300;6.846;2022-10-18T09:18:57;21.90;56.40
35495;DHT22;21608;49.300;6.846;2022-10-18T09:22:15;21.90;56.20
35495;DHT22;21608;49.300;6.846;2022-10-18T09:36:02;21.90;56.30
35495;DHT22;21608;49.300;6.846;2022-10-18T09:39:14;21.90;56.40
35495;DHT22;21608;49.300;6.846;2022-10-18T09:42:28;21.90;56.30
35495;DHT22;21608;49.300;6.846;2022-10-18T09:45:38;21.90;56.20
35495;DHT22;21608;49.300;6.846;2022-10-18T09:48:56;21.90;56.30
35495;DHT22;21608;49.300;6.846;2022-10-18T09:52:03;21.90;56.30
35495;DHT22;21608;49.300;6.846;2022-10-18T09:55:19;21.90;56.20
35495;DHT22;21608;49.300;6.846;2022-10-18T09:58:23;21.90;56.20
35495;DHT22;21608;49.300;6.846;2022-10-18T10:01:29;21.90;56.20
35495;DHT22;21608;49.300;6.846;2022-10-18T10:04:32;21.90;56.10
35495;DHT22;21608;49.300;6.846;2022-10-18T10:07:35;21.90;56.20
35495;DHT22;21608;49.300;6.846;2022-10-18T10:10:45;21.90;56.10
35495;DHT22;21608;49.300;6.846;2022-10-18T10:13:48;21.90;56.10
35495;DHT22;21608;49.300;6.846;2022-10-18T10:19:58;21.90;56.20
35495;DHT22;21608;49.300;6.846;2022-10-18T10:23:15;21.90;56.10
35495;DHT22;21608;49.300;6.846;2022-10-18T10:26:28;21.90;56.20
35495;DHT22;21608;49.300;6.846;2022-10-18T10:32:53;21.90;56.10
35495;DHT22;21608;49.300;6.846;2022-10-18T10:35:59;22.00;56.20
35495;DHT22;21608;49.300;6.846;2022-10-18T10:39:21;22.00;56.20
35495;DHT22;21608;49.300;6.846;2022-10-18T10:42:23;22.00;56.20
35495;DHT22;21608;49.300;6.846;2022-10-18T10:45:27;22.00;56.10
35495;DHT22;21608;49.300;6.846;2022-10-18T10:48:32;22.00;56.20
35495;DHT22;21608;49.300;6.846;2022-10-18T10:51:37;22.00;56.70
35495;DHT22;21608;49.300;6.846;2022-10-18T10:54:43;21.90;57.10
35495;DHT22;21608;49.300;6.846;2022-10-18T10:57:52;22.00;57.40
35495;DHT22;21608;49.300;6.846;2022-10-18T11:00:55;22.00;56.90
35495;DHT22;21608;49.300;6.846;2022-10-18T11:04:01;22.00;57.00
35495;DHT22;21608;49.300;6.846;2022-10-18T11:10:15;22.00;56.70
35495;DHT22;21608;49.300;6.846;2022-10-18T11:13:36;22.00;56.70
35495;DHT22;21608;49.300;6.846;2022-10-18T11:16:54;21.90;56.70
35495;DHT22;21608;49.300;6.846;2022-10-18T11:23:10;22.00;56.70
35495;DHT22;21608;49.300;6.846;2022-10-18T11:30:00;21.90;56.60
35495;DHT22;21608;49.300;6.846;2022-10-18T11:36:24;22.00;56.60
35495;DHT22;21608;49.300;6.846;2022-10-18T11:39:54;22.00;56.60
35495;DHT22;21608;49.300;6.846;2022-10-18T11:43:19;22.00;56.60
35495;DHT22;21608;49.300;6.846;2022-10-18T11:46:43;22.00;56.80
35495;DHT22;21608;49.300;6.846;2022-10-18T11:53:46;22.00;56.60
35495;DHT22;21608;49.300;6.846;2022-10-18T11:56:59;22.00;56.90
35495;DHT22;21608;49.300;6.846;2022-10-18T12:06:39;22.00;57.10
35495;DHT22;21608;49.300;6.846;2022-10-18T12:09:46;22.00;56.90
35495;DHT22;21608;49.300;6.846;2022-10-18T12:13:00;22.00;56.90
35495;DHT22;21608;49.300;6.846;2022-10-18T12:16:04;22.00;57.00
35495;DHT22;21608;49.300;6.846;2022-10-18T12:19:18;22.00;57.10
35495;DHT22;21608;49.300;6.846;2022-10-18T12:23:00;22.00;57.30
35495;DHT22;21608;49.300;6.846;2022-10-18T12:26:05;22.00;57.20
35495;DHT22;21608;49.300;6.846;2022-10-18T12:29:36;22.00;57.30
35495;DHT22;21608;49.300;6.846;2022-10-18T12:32:40;22.00;57.30
35495;DHT22;21608;49.300;6.846;2022-10-18T12:39:50;22.00;57.20
35495;DHT22;21608;49.300;6.846;2022-10-18T12:43:27;22.00;57.20
35495;DHT22;21608;49.300;6.846;2022-10-18T12:46:46;22.00;57.30
35495;DHT22;21608;49.300;6.846;2022-10-18T12:50:00;22.00;57.20
35495;DHT22;21608;49.300;6.846;2022-10-18T13:02:32;22.00;57.40
35495;DHT22;21608;49.300;6.846;2022-10-18T13:09:16;22.00;57.20
35495;DHT22;21608;49.300;6.846;2022-10-18T13:15:41;22.00;57.40
35495;DHT22;21608;49.300;6.846;2022-10-18T13:18:51;22.00;57.40
35495;DHT22;21608;49.300;6.846;2022-10-18T13:22:10;22.00;57.30
35495;DHT22;21608;49.300;6.846;2022-10-18T13:29:16;22.00;57.30
35495;DHT22;21608;49.300;6.846;2022-10-18T13:32:34;22.00;57.10
35495;DHT22;21608;49.300;6.846;2022-10-18T13:44:49;22.00;57.50
35495;DHT22;21608;49.300;6.846;2022-10-18T13:47:51;22.00;57.40
35495;DHT22;21608;49.300;6.846;2022-10-18T13:51:05;22.00;57.20
35495;DHT22;21608;49.300;6.846;2022-10-18T13:54:37;22.00;57.30
35495;DHT22;21608;49.300;6.846;2022-10-18T13:58:05;22.00;57.20
35495;DHT22;21608;49.300;6.846;2022-10-18T14:04:38;22.00;57.20
35495;DHT22;21608;49.300;6.846;2022-10-18T14:07:43;22.00;57.40
35495;DHT22;21608;49.300;6.846;2022-10-18T14:14:11;22.00;57.30
35495;DHT22;21608;49.300;6.846;2022-10-18T14:17:47;22.00;57.50
35495;DHT22;21608;49.300;6.846;2022-10-18T14:20:53;22.00;57.50
35495;DHT22;21608;49.300;6.846;2022-10-18T14:24:21;22.10;57.50
35495;DHT22;21608;49.300;6.846;2022-10-18T14:30:27;22.10;57.50
35495;DHT22;21608;49.300;6.846;2022-10-18T14:33:54;22.10;57.50
35495;DHT22;21608;49.300;6.846;2022-10-18T14:36:59;22.00;57.50
35495;DHT22;21608;49.300;6.846;2022-10-18T14:40:02;22.10;57.60
35495;DHT22;21608;49.300;6.846;2022-10-18T14:43:10;22.10;57.60
35495;DHT22;21608;49.300;6.846;2022-10-18T14:46:21;22.00;57.30
35495;DHT22;21608;49.300;6.846;2022-10-18T14:49:25;22.10;57.70
35495;DHT22;21608;49.300;6.846;2022-10-18T14:52:29;22.00;57.40
35495;DHT22;21608;49.300;6.846;2022-10-18T14:55:36;22.00;57.30
35495;DHT22;21608;49.300;6.846;2022-10-18T14:58:40;22.00;57.30
35495;DHT22;21608;49.300;6.846;2022-10-18T15:01:51;22.00;57.40
35495;DHT22;21608;49.300;6.846;2022-10-18T15:05:21;22.00;57.40
35495;DHT22;21608;49.300;6.846;2022-10-18T15:08:24;22.00;57.20
35495;DHT22;21608;49.300;6.846;2022-10-18T15:11:27;22.00;57.30
35495;DHT22;21608;49.300;6.846;2022-10-18T15:14:29;22.00;57.30
35495;DHT22;21608;49.300;6.846;2022-10-18T15:17:33;22.00;57.10
35495;DHT22;21608;49.300;6.846;2022-10-18T15:20:36;22.00;57.20
35495;DHT22;21608;49.300;6.846;2022-10-18T15:23:43;22.00;57.20
35495;DHT22;21608;49.300;6.846;2022-10-18T15:26:45;22.00;57.20
35495;DHT22;21608;49.300;6.846;2022-10-18T15:29:48;22.00;57.10
35495;DHT22;21608;49.300;6.846;2022-10-18T15:33:01;22.00;57.10
35495;DHT22;21608;49.300;6.846;2022-10-18T15:36:08;22.00;57.20
35495;DHT22;21608;49.300;6.846;2022-10-18T15:39:16;22.00;57.10
35495;DHT22;21608;49.300;6.846;2022-10-18T15:42:36;22.00;57.20
35495;DHT22;21608;49.300;6.846;2022-10-18T15:45:45;22.00;57.20
35495;DHT22;21608;49.300;6.846;2022-10-18T15:48:48;22.00;57.00
35495;DHT22;21608;49.300;6.846;2022-10-18T15:55:44;22.00;57.00
35495;DHT22;21608;49.300;6.846;2022-10-18T15:58:46;22.00;57.10
35495;DHT22;21608;49.300;6.846;2022-10-18T16:01:49;22.00;57.10
35495;DHT22;21608;49.300;6.846;2022-10-18T16:04:51;22.00;57.00
35495;DHT22;21608;49.300;6.846;2022-10-18T16:07:53;22.00;57.10
35495;DHT22;21608;49.300;6.846;2022-10-18T16:10:55;22.00;57.10
35495;DHT22;21608;49.300;6.846;2022-10-18T16:13:59;22.00;57.00
35495;DHT22;21608;49.300;6.846;2022-10-18T16:17:05;22.00;57.20
35495;DHT22;21608;49.300;6.846;2022-10-18T16:20:19;22.00;57.00
35495;DHT22;21608;49.300;6.846;2022-10-18T16:23:25;22.00;57.00
35495;DHT22;21608;49.300;6.846;2022-10-18T16:26:29;22.00;57.00
35495;DHT22;21608;49.300;6.846;2022-10-18T16:29:30;22.00;57.10
35495;DHT22;21608;49.300;6.846;2022-10-18T16:32:33;22.00;57.00
35495;DHT22;21608;49.300;6.846;2022-10-18T16:35:35;22.00;56.90
35495;DHT22;21608;49.300;6.846;2022-10-18T16:38:37;22.00;56.90
35495;DHT22;21608;49.300;6.846;2022-10-18T16:41:39;22.00;56.90
35495;DHT22;21608;49.300;6.846;2022-10-18T16:44:41;22.00;56.80
35495;DHT22;21608;49.300;6.846;2022-10-18T16:47:42;22.00;56.90
35495;DHT22;21608;49.300;6.846;2022-10-18T16:50:44;22.00;56.80
35495;DHT22;21608;49.300;6.846;2022-10-18T16:53:47;22.00;56.90
35495;DHT22;21608;49.300;6.846;2022-10-18T16:56:49;22.00;57.00
35495;DHT22;21608;49.300;6.846;2022-10-18T16:59:51;22.00;56.90
35495;DHT22;21608;49.300;6.846;2022-10-18T17:02:52;22.00;56.80
35495;DHT22;21608;49.300;6.846;2022-10-18T17:05:54;22.00;56.90
35495;DHT22;21608;49.300;6.846;2022-10-18T17:08:57;22.00;56.80
35495;DHT22;21608;49.300;6.846;2022-10-18T17:11:58;22.00;56.80
35495;DHT22;21608;49.300;6.846;2022-10-18T17:15:00;22.00;57.00
35495;DHT22;21608;49.300;6.846;2022-10-18T17:18:02;22.00;56.80
35495;DHT22;21608;49.300;6.846;2022-10-18T17:21:04;22.00;56.80
35495;DHT22;21608;49.300;6.846;2022-10-18T17:24:06;22.00;56.80
35495;DHT22;21608;49.300;6.846;2022-10-18T17:27:09;22.00;56.80
35495;DHT22;21608;49.300;6.846;2022-10-18T17:30:12;22.00;57.40
35495;DHT22;21608;49.300;6.846;2022-10-18T17:33:15;22.00;56.70
35495;DHT22;21608;49.300;6.846;2022-10-18T17:36:17;22.00;56.70
35495;DHT22;21608;49.300;6.846;2022-10-18T17:39:18;22.00;56.60
35495;DHT22;21608;49.300;6.846;2022-10-18T17:42:20;22.10;56.60
35495;DHT22;21608;49.300;6.846;2022-10-18T17:45:22;22.10;56.50
35495;DHT22;21608;49.300;6.846;2022-10-18T17:48:24;22.10;56.90
35495;DHT22;21608;49.300;6.846;2022-10-18T17:51:26;22.10;56.50
35495;DHT22;21608;49.300;6.846;2022-10-18T17:54:27;22.10;57.00
35495;DHT22;21608;49.300;6.846;2022-10-18T17:57:29;22.20;57.00
35495;DHT22;21608;49.300;6.846;2022-10-18T18:00:31;22.20;56.90
35495;DHT22;21608;49.300;6.846;2022-10-18T18:03:33;22.20;56.90
35495;DHT22;21608;49.300;6.846;2022-10-18T18:06:36;22.20;57.00
35495;DHT22;21608;49.300;6.846;2022-10-18T18:09:39;22.20;56.80
35495;DHT22;21608;49.300;6.846;2022-10-18T18:12:42;22.20;56.90
35495;DHT22;21608;49.300;6.846;2022-10-18T18:15:45;22.30;56.90
35495;DHT22;21608;49.300;6.846;2022-10-18T18:18:49;22.30;56.90
35495;DHT22;21608;49.300;6.846;2022-10-18T18:21:51;22.30;56.90
35495;DHT22;21608;49.300;6.846;2022-10-18T18:24:56;22.30;56.90
35495;DHT22;21608;49.300;6.846;2022-10-18T18:27:57;22.30;57.10
35495;DHT22;21608;49.300;6.846;2022-10-18T18:31:10;22.30;57.20
35495;DHT22;21608;49.300;6.846;2022-10-18T18:34:12;22.30;57.20
35495;DHT22;21608;49.300;6.846;2022-10-18T18:37:14;22.40;57.00
35495;DHT22;21608;49.300;6.846;2022-10-18T18:40:16;22.30;56.90
35495;DHT22;21608;49.300;6.846;2022-10-18T18:43:17;22.40;57.00
35495;DHT22;21608;49.300;6.846;2022-10-18T18:46:28;22.30;57.10
35495;DHT22;21608;49.300;6.846;2022-10-18T18:49:30;22.40;57.00
35495;DHT22;21608;49.300;6.846;2022-10-18T18:52:32;22.40;57.10
35495;DHT22;21608;49.300;6.846;2022-10-18T18:55:34;22.30;57.00
35495;DHT22;21608;49.300;6.846;2022-10-18T18:58:40;22.40;57.00
35495;DHT22;21608;49.300;6.846;2022-10-18T19:01:44;22.40;57.10
35495;DHT22;21608;49.300;6.846;2022-10-18T19:04:46;22.40;56.90
35495;DHT22;21608;49.300;6.846;2022-10-18T19:07:47;22.30;57.00
35495;DHT22;21608;49.300;6.846;2022-10-18T19:10:49;22.30;56.90
35495;DHT22;21608;49.300;6.846;2022-10-18T19:13:51;22.30;56.90
35495;DHT22;21608;49.300;6.846;2022-10-18T19:16:54;22.40;57.10
35495;DHT22;21608;49.300;6.846;2022-10-18T19:19:58;22.40;57.00
35495;DHT22;21608;49.300;6.846;2022-10-18T19:23:01;22.40;57.00
35495;DHT22;21608;49.300;6.846;2022-10-18T19:26:39;22.40;56.90
35495;DHT22;21608;49.300;6.846;2022-10-18T19:29:39;22.40;57.00
35495;DHT22;21608;49.300;6.846;2022-10-18T19:32:41;22.40;57.10
35495;DHT22;21608;49.300;6.846;2022-10-18T19:35:43;22.40;57.00
35495;DHT22;21608;49.300;6.846;2022-10-18T19:38:45;22.30;56.30
35495;DHT22;21608;49.300;6.846;2022-10-18T19:41:48;22.40;56.90
35495;DHT22;21608;49.300;6.846;2022-10-18T19:44:51;22.40;56.80
35495;DHT22;21608;49.300;6.846;2022-10-18T19:47:53;22.40;56.80
35495;DHT22;21608;49.300;6.846;2022-10-18T19:50:54;22.30;56.80
35495;DHT22;21608;49.300;6.846;2022-10-18T19:53:56;22.40;56.70
35495;DHT22;21608;49.300;6.846;2022-10-18T19:56:58;22.40;56.80
35495;DHT22;21608;49.300;6.846;2022-10-18T20:00:00;22.40;56.90
35495;DHT22;21608;49.300;6.846;2022-10-18T20:03:12;22.40;56.80
35495;DHT22;21608;49.300;6.846;2022-10-18T20:06:14;22.40;56.80
35495;DHT22;21608;49.300;6.846;2022-10-18T20:09:16;22.40;56.90
35495;DHT22;21608;49.300;6.846;2022-10-18T20:12:21;22.50;57.00
35495;DHT22;21608;49.300;6.846;2022-10-18T20:15:23;22.50;56.80
35495;DHT22;21608;49.300;6.846;2022-10-18T20:18:24;22.50;56.80
35495;DHT22;21608;49.300;6.846;2022-10-18T20:21:28;22.50;56.70
35495;DHT22;21608;49.300;6.846;2022-10-18T20:24:30;22.60;56.80
35495;DHT22;21608;49.300;6.846;2022-10-18T20:27:32;22.60;56.70
35495;DHT22;21608;49.300;6.846;2022-10-18T20:30:34;22.60;56.70
35495;DHT22;21608;49.300;6.846;2022-10-18T20:33:36;22.70;56.70
35495;DHT22;21608;49.300;6.846;2022-10-18T20:36:38;22.70;56.80
35495;DHT22;21608;49.300;6.846;2022-10-18T20:39:40;22.70;56.80
35495;DHT22;21608;49.300;6.846;2022-10-18T20:42:42;22.70;56.80
35495;DHT22;21608;49.300;6.846;2022-10-18T20:45:44;22.70;56.70
35495;DHT22;21608;49.300;6.846;2022-10-18T20:48:46;22.70;56.60
35495;DHT22;21608;49.300;6.846;2022-10-18T20:51:49;22.70;56.70
35495;DHT22;21608;49.300;6.846;2022-10-18T20:54:50;22.70;56.60
35495;DHT22;21608;49.300;6.846;2022-10-18T20:57:52;22.70;56.60
35495;DHT22;21608;49.300;6.846;2022-10-18T21:00:54;22.70;56.60
35495;DHT22;21608;49.300;6.846;2022-10-18T21:03:58;22.70;56.40
35495;DHT22;21608;49.300;6.846;2022-10-18T21:07:01;22.70;56.50
35495;DHT22;21608;49.300;6.846;2022-10-18T21:10:03;22.70;56.40
35495;DHT22;21608;49.300;6.846;2022-10-18T21:13:04;22.70;56.50
35495;DHT22;21608;49.300;6.846;2022-10-18T21:16:06;22.80;57.00
35495;DHT22;21608;49.300;6.846;2022-10-18T21:19:15;22.70;56.40
35495;DHT22;21608;49.300;6.846;2022-10-18T21:22:17;22.70;56.30
35495;DHT22;21608;49.300;6.846;2022-10-18T21:25:18;22.70;56.40
35495;DHT22;21608;49.300;6.846;2022-10-18T21:28:20;22.70;56.30
35495;DHT22;21608;49.300;6.846;2022-10-18T21:31:24;22.70;56.30
35495;DHT22;21608;49.300;6.846;2022-10-18T21:34:26;22.70;56.30